Underhill, Vermont
Current Conditions -  °F | °C
As of 8:54 AM on Monday 20 Oct 2014 (Local Time) from KBTV Reporting Station
Scattered Clouds Scattered Clouds  
Wind Chill: 31°   Ceiling: Unl
Heat Index: 38°   Visibility: 10mi
Dew Point: 26°   Wind: 10mph
Humidity: 62%   Direction: 190°S
Pressure: 30.01"   Gusts: NA
Location:  44.53°N, 72.95°W
Report Text: KBTV 201254Z 19009KT 10SM FEW040 FEW120 SCT250 03/M03 A3001 RMK AO2 SLP165 T00331033
Loading
Personal Weather Stations






























Interactive Weather Map
Tropical Storm Tracking
New forecast layout! Learn more

10-Day Weather Forecast

Advertisements
Track Severe Weather on mobile